Time,TemperatureF,DewpointF,PressureIn,WindDirection,WindDirectionDegrees,WindSpeedMPH,WindSpeedGustMPH,Humidity,HourlyPrecipIn,Conditions,Clouds,dailyrainin,SoftwareType,DateUTC
2013-04-30 00:03:00,30.1,25.8,29.89,WNW,285,1.0,15.0,84,0.00,,,0.09,Wunderground v.1.15,2013-04-30 06:03:00,
2013-04-30 00:08:00,29.7,25.5,29.89,WNW,285,1.0,15.0,84,0.00,,,0.09,Wunderground v.1.15,2013-04-30 06:08:00,
2013-04-30 00:14:00,29.6,25.6,29.89,WNW,285,0.0,15.0,85,0.00,,,0.09,Wunderground v.1.15,2013-04-30 06:14:00,
2013-04-30 00:20:00,29.9,25.9,29.89,WNW,285,0.0,15.0,85,0.00,,,0.09,Wunderground v.1.15,2013-04-30 06:20:00,
2013-04-30 00:25:00,30.0,26.3,29.89,WNW,285,0.0,15.0,86,0.00,,,0.09,Wunderground v.1.15,2013-04-30 06:25:00,
2013-04-30 00:32:00,30.0,26.0,29.89,WNW,285,1.0,15.0,85,0.00,,,0.09,Wunderground v.1.15,2013-04-30 06:32:00,
2013-04-30 00:38:00,29.9,25.9,29.89,WNW,285,1.0,15.0,85,0.00,,,0.09,Wunderground v.1.15,2013-04-30 06:38:00,
2013-04-30 00:43:00,29.8,25.8,29.90,WNW,285,0.0,15.0,85,0.00,,,0.09,Wunderground v.1.15,2013-04-30 06:43:00,
2013-04-30 00:49:00,29.4,25.2,29.90,WNW,291,1.0,15.0,84,0.00,,,0.09,Wunderground v.1.15,2013-04-30 06:49:00,
2013-04-30 00:54:00,29.5,25.5,29.90,WNW,291,0.0,15.0,85,0.00,,,0.09,Wunderground v.1.15,2013-04-30 06:54:00,
2013-04-30 01:00:00,29.6,25.6,29.90,WNW,291,0.0,15.0,85,0.00,,,0.09,Wunderground v.1.15,2013-04-30 07:00:00,
2013-04-30 01:06:00,29.7,25.7,29.90,WNW,291,0.0,15.0,85,0.00,,,0.09,Wunderground v.1.15,2013-04-30 07:06:00,
2013-04-30 01:11:00,29.4,25.4,29.90,WNW,291,0.0,15.0,85,0.00,,,0.09,Wunderground v.1.15,2013-04-30 07:11:00,
2013-04-30 01:17:00,28.8,24.9,29.90,WNW,291,0.0,15.0,85,0.00,,,0.09,Wunderground v.1.15,2013-04-30 07:17:00,
2013-04-30 01:22:00,28.8,25.1,29.90,WNW,291,0.0,15.0,86,0.00,,,0.09,Wunderground v.1.15,2013-04-30 07:22:00,
2013-04-30 01:28:00,29.0,25.3,29.90,WNW,291,0.0,15.0,86,0.00,,,0.00,Wunderground v.1.15,2013-04-30 07:28:00,
2013-04-30 01:34:00,29.0,25.6,29.91,WNW,291,0.0,15.0,87,0.00,,,0.00,Wunderground v.1.15,2013-04-30 07:34:00,
2013-04-30 01:40:00,28.8,25.1,29.91,WNW,291,0.0,15.0,86,0.00,,,0.00,Wunderground v.1.15,2013-04-30 07:40:00,
2013-04-30 01:46:00,28.5,24.8,29.91,WNW,291,0.0,15.0,86,0.00,,,0.00,Wunderground v.1.15,2013-04-30 07:46:00,
2013-04-30 01:52:00,28.5,24.8,29.91,WNW,291,0.0,15.0,86,0.00,,,0.00,Wunderground v.1.15,2013-04-30 07:52:00,
2013-04-30 01:58:00,28.5,25.1,29.91,WNW,291,0.0,15.0,87,0.00,,,0.00,Wunderground v.1.15,2013-04-30 07:58:00,
2013-04-30 02:04:00,28.4,25.0,29.91,WNW,291,0.0,15.0,87,0.00,,,0.00,Wunderground v.1.15,2013-04-30 08:04:00,
2013-04-30 02:09:00,28.3,25.2,29.91,WNW,291,0.0,15.0,88,0.00,,,0.00,Wunderground v.1.15,2013-04-30 08:09:00,
2013-04-30 02:15:00,27.7,24.3,29.92,WNW,291,0.0,15.0,87,0.00,,,0.00,Wunderground v.1.15,2013-04-30 08:15:00,
2013-04-30 02:21:00,27.8,25.0,29.92,WNW,291,0.0,15.0,89,0.00,,,0.00,Wunderground v.1.15,2013-04-30 08:21:00,
2013-04-30 02:26:00,28.5,25.7,29.92,WNW,291,0.0,15.0,89,0.00,,,0.00,Wunderground v.1.15,2013-04-30 08:26:00,
2013-04-30 02:32:00,28.5,25.4,29.92,WNW,291,0.0,15.0,88,0.00,,,0.00,Wunderground v.1.15,2013-04-30 08:32:00,
2013-04-30 02:38:00,27.8,24.7,29.92,WNW,291,0.0,15.0,88,0.00,,,0.00,Wunderground v.1.15,2013-04-30 08:38:00,
2013-04-30 02:43:00,27.5,24.4,29.93,WNW,291,0.0,15.0,88,0.00,,,0.00,Wunderground v.1.15,2013-04-30 08:43:00,
2013-04-30 02:49:00,27.5,24.7,29.93,WNW,291,0.0,15.0,89,0.00,,,0.00,Wunderground v.1.15,2013-04-30 08:49:00,
2013-04-30 02:54:00,27.6,24.8,29.93,WNW,291,0.0,15.0,89,0.00,,,0.00,Wunderground v.1.15,2013-04-30 08:54:00,
2013-04-30 03:00:00,27.4,24.6,29.93,WNW,291,0.0,15.0,89,0.00,,,0.00,Wunderground v.1.15,2013-04-30 09:00:00,
2013-04-30 03:06:00,27.0,24.2,29.93,WNW,290,0.0,15.0,89,0.00,,,0.00,Wunderground v.1.15,2013-04-30 09:06:00,
2013-04-30 03:12:00,26.7,23.9,29.94,WNW,290,0.0,15.0,89,0.00,,,0.00,Wunderground v.1.15,2013-04-30 09:12:00,
2013-04-30 03:17:00,26.3,23.5,29.94,WNW,290,1.0,15.0,89,0.00,,,0.00,Wunderground v.1.15,2013-04-30 09:17:00,
2013-04-30 11:23:00,38.4,23.2,30.09,SSW,195,0.0,15.0,54,0.00,,,0.00,Wunderground v.1.15,2013-04-30 17:23:00,
2013-04-30 11:29:00,38.5,25.4,30.09,NW,324,0.0,15.0,59,0.00,,,0.00,Wunderground v.1.15,2013-04-30 17:29:00,
2013-04-30 11:35:00,37.9,26.8,30.09,NNE,15,2.0,15.0,64,0.00,,,0.00,Wunderground v.1.15,2013-04-30 17:35:00,
2013-04-30 11:40:00,37.7,27.4,30.10,NNE,24,1.0,15.0,66,0.00,,,0.00,Wunderground v.1.15,2013-04-30 17:40:00,
2013-04-30 11:46:00,37.4,26.7,30.10,NNW,346,2.0,15.0,65,0.00,,,0.00,Wunderground v.1.15,2013-04-30 17:46:00,
2013-04-30 11:52:00,37.1,26.8,30.10,NW,314,2.0,15.0,66,0.00,,,0.00,Wunderground v.1.15,2013-04-30 17:52:00,
2013-04-30 11:58:00,37.3,27.7,30.11,NNW,333,2.0,15.0,68,0.00,,,0.00,Wunderground v.1.15,2013-04-30 17:58:00,
2013-04-30 12:03:00,37.5,26.8,30.11,NNW,346,2.0,15.0,65,0.00,,,0.00,Wunderground v.1.15,2013-04-30 18:03:00,
2013-04-30 12:09:00,37.9,27.9,30.11,NNW,329,2.0,15.0,67,0.00,,,0.00,Wunderground v.1.15,2013-04-30 18:09:00,
2013-04-30 12:15:00,37.0,27.4,30.12,NNW,346,3.0,15.0,68,0.00,,,0.00,Wunderground v.1.15,2013-04-30 18:15:00,
2013-04-30 12:21:00,37.1,28.2,30.12,NNW,348,3.0,15.0,70,0.00,,,0.00,Wunderground v.1.15,2013-04-30 18:21:00,
2013-04-30 12:26:00,36.4,28.9,30.13,North,360,3.0,15.0,74,0.00,,,0.00,Wunderground v.1.15,2013-04-30 18:26:00,
2013-04-30 12:32:00,35.2,28.1,30.13,North,355,4.0,15.0,75,0.00,,,0.00,Wunderground v.1.15,2013-04-30 18:32:00,
2013-04-30 12:37:00,34.9,29.4,30.13,NE,44,4.0,15.0,80,0.00,,,0.00,Wunderground v.1.15,2013-04-30 18:37:00,
2013-04-30 12:43:00,34.9,29.4,30.14,NNW,347,3.0,15.0,80,0.00,,,0.00,Wunderground v.1.15,2013-04-30 18:43:00,
2013-04-30 12:49:00,34.2,28.4,30.14,NNW,343,4.0,15.0,79,0.00,,,0.00,Wunderground v.1.15,2013-04-30 18:49:00,
2013-04-30 12:54:00,34.1,28.9,30.14,North,355,4.0,15.0,81,0.00,,,0.00,Wunderground v.1.15,2013-04-30 18:54:00,
2013-04-30 13:00:00,34.4,28.6,30.14,North,349,3.0,3.0,79,0.00,,,0.00,Wunderground v.1.15,2013-04-30 19:00:00,
2013-04-30 13:06:00,34.5,28.7,30.14,North,355,3.0,15.0,79,0.00,,,0.00,Wunderground v.1.15,2013-04-30 19:06:00,
2013-04-30 13:12:00,35.0,29.5,30.15,NNW,336,3.0,15.0,80,0.00,,,0.00,Wunderground v.1.15,2013-04-30 19:12:00,
2013-04-30 13:17:00,35.0,29.1,30.15,NNW,344,2.0,15.0,79,0.00,,,0.00,Wunderground v.1.15,2013-04-30 19:17:00,
2013-04-30 13:23:00,35.0,28.8,30.15,NW,319,1.0,15.0,78,0.00,,,0.00,Wunderground v.1.15,2013-04-30 19:23:00,
2013-04-30 13:29:00,35.2,29.0,30.15,North,350,1.0,15.0,78,0.00,,,0.00,Wunderground v.1.15,2013-04-30 19:29:00,
2013-04-30 13:34:00,35.3,28.5,30.15,North,5,2.0,15.0,76,0.00,,,0.00,Wunderground v.1.15,2013-04-30 19:34:00,
2013-04-30 13:40:00,35.1,28.6,30.15,West,276,1.0,15.0,77,0.00,,,0.00,Wunderground v.1.15,2013-04-30 19:40:00,
2013-04-30 13:45:00,36.1,29.6,30.15,West,276,0.0,15.0,77,0.00,,,0.00,Wunderground v.1.15,2013-04-30 19:45:00,
2013-04-30 13:51:00,36.6,28.1,30.16,West,281,0.0,15.0,71,0.00,,,0.00,Wunderground v.1.15,2013-04-30 19:51:00,
2013-04-30 13:57:00,36.4,27.5,30.16,WNW,292,0.0,15.0,70,0.00,,,0.00,Wunderground v.1.15,2013-04-30 19:57:00,
2013-04-30 14:03:00,36.5,29.3,30.17,East,90,1.0,15.0,75,0.00,,,0.00,Wunderground v.1.15,2013-04-30 20:03:00,
2013-04-30 14:08:00,35.7,29.8,30.17,East,98,1.0,15.0,79,0.00,,,0.00,Wunderground v.1.15,2013-04-30 20:08:00,
2013-04-30 14:14:00,35.1,29.6,30.17,SSE,165,2.0,15.0,80,0.00,,,0.00,Wunderground v.1.15,2013-04-30 20:14:00,
2013-04-30 14:20:00,34.9,29.7,30.18,SE,136,2.0,15.0,81,0.00,,,0.00,Wunderground v.1.15,2013-04-30 20:20:00,
2013-04-30 14:25:00,34.8,29.6,30.18,SSE,168,2.0,15.0,81,0.00,,,0.00,Wunderground v.1.15,2013-04-30 20:25:00,
2013-04-30 14:31:00,35.2,29.6,30.18,SE,140,2.0,15.0,80,0.00,,,0.00,Wunderground v.1.15,2013-04-30 20:31:00,
2013-04-30 14:37:00,35.1,29.6,30.19,South,191,2.0,15.0,80,0.00,,,0.00,Wunderground v.1.15,2013-04-30 20:37:00,
2013-04-30 14:43:00,35.1,29.9,30.19,SSE,166,3.0,15.0,81,0.00,,,0.00,Wunderground v.1.15,2013-04-30 20:43:00,
2013-04-30 14:49:00,34.9,29.7,30.19,South,187,3.0,15.0,81,0.00,,,0.00,Wunderground v.1.15,2013-04-30 20:49:00,
2013-04-30 14:55:00,35.1,30.5,30.20,SSW,193,3.0,15.0,83,0.00,,,0.00,Wunderground v.1.15,2013-04-30 20:55:00,
2013-04-30 15:01:00,34.9,30.0,30.20,South,184,3.0,15.0,82,0.00,,,0.00,Wunderground v.1.15,2013-04-30 21:01:00,
2013-04-30 15:06:00,34.8,29.6,30.20,South,178,3.0,15.0,81,0.00,,,0.00,Wunderground v.1.15,2013-04-30 21:06:00,
2013-04-30 15:12:00,35.1,29.9,30.20,South,190,2.0,15.0,81,0.00,,,0.00,Wunderground v.1.15,2013-04-30 21:12:00,
2013-04-30 15:18:00,34.9,29.0,30.20,South,186,2.0,15.0,79,0.00,,,0.00,Wunderground v.1.15,2013-04-30 21:18:00,
2013-04-30 15:23:00,34.9,30.0,30.20,SSW,192,2.0,15.0,82,0.00,,,0.00,Wunderground v.1.15,2013-04-30 21:23:00,
2013-04-30 15:29:00,34.7,29.8,30.20,South,190,2.0,15.0,82,0.00,,,0.00,Wunderground v.1.15,2013-04-30 21:29:00,
2013-04-30 15:35:00,34.6,30.0,30.20,South,186,2.0,15.0,83,0.00,,,0.00,Wunderground v.1.15,2013-04-30 21:35:00,
2013-04-30 15:41:00,34.8,29.9,30.21,South,186,1.0,15.0,82,0.00,,,0.00,Wunderground v.1.15,2013-04-30 21:41:00,
2013-04-30 15:46:00,34.7,29.8,30.21,South,188,0.0,15.0,82,0.00,,,0.00,Wunderground v.1.15,2013-04-30 21:46:00,
2013-04-30 15:52:00,35.0,29.8,30.21,WNW,303,1.0,15.0,81,0.00,,,0.00,Wunderground v.1.15,2013-04-30 21:52:00,
2013-04-30 15:58:00,35.2,29.6,30.21,South,188,1.0,15.0,80,0.00,,,0.00,Wunderground v.1.15,2013-04-30 21:58:00,
2013-04-30 16:03:00,35.6,29.7,30.22,South,184,1.0,15.0,79,0.00,,,0.00,Wunderground v.1.15,2013-04-30 22:03:00,
2013-04-30 16:09:00,35.2,28.7,30.22,SSW,213,1.0,15.0,77,0.00,,,0.00,Wunderground v.1.15,2013-04-30 22:09:00,
2013-04-30 16:15:00,35.5,28.7,30.22,SSW,213,0.0,15.0,76,0.00,,,0.00,Wunderground v.1.15,2013-04-30 22:15:00,
2013-04-30 16:21:00,35.9,29.1,30.22,SSW,213,0.0,15.0,76,0.00,,,0.00,Wunderground v.1.15,2013-04-30 22:21:00,
2013-04-30 16:26:00,36.0,28.8,30.22,SW,216,0.0,15.0,75,0.00,,,0.00,Wunderground v.1.15,2013-04-30 22:26:00,
2013-04-30 16:32:00,36.0,27.5,30.22,South,179,1.0,15.0,71,0.00,,,0.00,Wunderground v.1.15,2013-04-30 22:32:00,
2013-04-30 16:38:00,35.9,27.1,30.22,WSW,240,0.0,15.0,70,0.00,,,0.00,Wunderground v.1.15,2013-04-30 22:38:00,
2013-04-30 16:44:00,36.1,27.6,30.22,SSW,195,0.0,15.0,71,0.00,,,0.00,Wunderground v.1.15,2013-04-30 22:44:00,
2013-04-30 16:49:00,36.2,27.7,30.23,South,185,0.0,15.0,71,0.00,,,0.00,Wunderground v.1.15,2013-04-30 22:49:00,
2013-04-30 16:55:00,36.4,28.2,30.23,South,186,0.0,15.0,72,0.00,,,0.00,Wunderground v.1.15,2013-04-30 22:55:00,
2013-04-30 17:01:00,36.2,27.4,30.23,West,264,0.0,15.0,70,0.00,,,0.00,Wunderground v.1.15,2013-04-30 23:01:00,
2013-04-30 17:06:00,36.4,28.6,30.23,West,264,0.0,15.0,73,0.00,,,0.00,Wunderground v.1.15,2013-04-30 23:06:00,
2013-04-30 17:12:00,36.4,28.9,30.24,West,264,0.0,15.0,74,0.00,,,0.00,Wunderground v.1.15,2013-04-30 23:12:00,
2013-04-30 17:18:00,36.6,29.1,30.24,West,264,0.0,15.0,74,0.00,,,0.00,Wunderground v.1.15,2013-04-30 23:18:00,
2013-04-30 17:24:00,36.8,29.0,30.24,West,264,0.0,15.0,73,0.00,,,0.00,Wunderground v.1.15,2013-04-30 23:24:00,
2013-04-30 17:30:00,36.8,29.3,30.24,West,264,0.0,15.0,74,0.00,,,0.00,Wunderground v.1.15,2013-04-30 23:30:00,
2013-04-30 17:35:00,37.0,29.1,30.25,West,264,0.0,15.0,73,0.00,,,0.00,Wunderground v.1.15,2013-04-30 23:35:00,
2013-04-30 17:41:00,37.0,28.5,30.25,West,264,0.0,15.0,71,0.00,,,0.00,Wunderground v.1.15,2013-04-30 23:41:00,
2013-04-30 17:47:00,37.3,28.1,30.25,West,264,0.0,15.0,69,0.00,,,0.00,Wunderground v.1.15,2013-04-30 23:47:00,
2013-04-30 17:52:00,37.2,28.0,30.25,WNW,300,0.0,15.0,69,0.00,,,0.00,Wunderground v.1.15,2013-04-30 23:52:00,
2013-04-30 17:58:00,37.4,27.8,30.25,WNW,300,0.0,15.0,68,0.00,,,0.00,Wunderground v.1.15,2013-04-30 23:58:00,
2013-04-30 18:04:00,37.4,27.4,30.25,WNW,300,0.0,15.0,67,0.00,,,0.00,Wunderground v.1.15,2013-05-01 00:04:00,
2013-04-30 18:10:00,37.4,26.7,30.26,WNW,300,0.0,15.0,65,0.00,,,0.00,Wunderground v.1.15,2013-05-01 00:10:00,
2013-04-30 18:15:00,37.4,27.1,30.26,WNW,300,0.0,15.0,66,0.00,,,0.00,Wunderground v.1.15,2013-05-01 00:15:00,
2013-04-30 18:21:00,37.9,28.3,30.26,WNW,300,0.0,15.0,68,0.00,,,0.00,Wunderground v.1.15,2013-05-01 00:21:00,
2013-04-30 18:27:00,37.7,27.0,30.26,WNW,300,0.0,15.0,65,0.00,,,0.00,Wunderground v.1.15,2013-05-01 00:27:00,
2013-04-30 18:32:00,37.5,27.2,30.27,WNW,300,0.0,15.0,66,0.00,,,0.00,Wunderground v.1.15,2013-05-01 00:32:00,
2013-04-30 18:38:00,37.7,27.7,30.27,WNW,300,0.0,15.0,67,0.00,,,0.00,Wunderground v.1.15,2013-05-01 00:38:00,
2013-04-30 18:43:00,37.7,27.7,30.27,WNW,300,0.0,15.0,67,0.00,,,0.00,Wunderground v.1.15,2013-05-01 00:43:00,
2013-04-30 18:49:00,37.5,27.5,30.28,WNW,300,0.0,15.0,67,0.00,,,0.00,Wunderground v.1.15,2013-05-01 00:49:00,
2013-04-30 18:54:00,37.7,28.4,30.28,WNW,300,0.0,15.0,69,0.00,,,0.00,Wunderground v.1.15,2013-05-01 00:54:00,
2013-04-30 19:00:00,37.8,28.5,30.28,WNW,300,0.0,15.0,69,0.00,,,0.00,Wunderground v.1.15,2013-05-01 01:00:00,
2013-04-30 19:06:00,37.5,27.9,30.28,WNW,300,0.0,15.0,68,0.00,,,0.00,Wunderground v.1.15,2013-05-01 01:06:00,
2013-04-30 19:11:00,37.5,28.2,30.28,WNW,300,0.0,15.0,69,0.00,,,0.00,Wunderground v.1.15,2013-05-01 01:11:00,
2013-04-30 19:17:00,37.3,28.4,30.28,NNW,345,1.0,15.0,70,0.00,,,0.00,Wunderground v.1.15,2013-05-01 01:17:00,
2013-04-30 19:23:00,37.3,28.4,30.29,North,355,1.0,15.0,70,0.00,,,0.00,Wunderground v.1.15,2013-05-01 01:23:00,
2013-04-30 19:28:00,37.6,28.7,30.29,NNE,14,2.0,15.0,70,0.00,,,0.00,Wunderground v.1.15,2013-05-01 01:28:00,
2013-04-30 19:34:00,37.5,28.6,30.29,SW,236,1.0,15.0,70,0.00,,,0.00,Wunderground v.1.15,2013-05-01 01:34:00,
2013-04-30 19:39:00,37.0,28.5,30.30,WNW,283,1.0,15.0,71,0.00,,,0.00,Wunderground v.1.15,2013-05-01 01:39:00,
2013-04-30 19:45:00,36.9,28.7,30.30,SSW,200,1.0,15.0,72,0.00,,,0.00,Wunderground v.1.15,2013-05-01 01:45:00,
2013-04-30 19:51:00,36.5,28.3,30.30,South,185,0.0,15.0,72,0.00,,,0.00,Wunderground v.1.15,2013-05-01 01:51:00,
2013-04-30 19:56:00,36.2,28.0,30.30,SW,214,0.0,15.0,72,0.00,,,0.00,Wunderground v.1.15,2013-05-01 01:56:00,
2013-04-30 20:02:00,35.8,27.7,30.30,SW,214,0.0,15.0,72,0.00,,,0.00,Wunderground v.1.15,2013-05-01 02:02:00,
2013-04-30 20:07:00,35.5,27.7,30.30,SW,214,0.0,15.0,73,0.00,,,0.00,Wunderground v.1.15,2013-05-01 02:07:00,
2013-04-30 20:13:00,35.1,27.6,30.31,SW,214,0.0,15.0,74,0.00,,,0.00,Wunderground v.1.15,2013-05-01 02:13:00,
2013-04-30 20:19:00,34.6,27.2,30.31,SW,214,0.0,15.0,74,0.00,,,0.00,Wunderground v.1.15,2013-05-01 02:19:00,
2013-04-30 20:24:00,34.3,27.2,30.31,SW,214,0.0,15.0,75,0.00,,,0.00,Wunderground v.1.15,2013-05-01 02:24:00,
2013-04-30 20:30:00,34.0,27.2,30.31,SW,214,0.0,15.0,76,0.00,,,0.00,Wunderground v.1.15,2013-05-01 02:30:00,
2013-04-30 20:35:00,33.7,27.6,30.32,SW,214,0.0,15.0,78,0.00,,,0.00,Wunderground v.1.15,2013-05-01 02:35:00,
2013-04-30 20:41:00,33.4,27.6,30.32,SW,214,0.0,15.0,79,0.00,,,0.00,Wunderground v.1.15,2013-05-01 02:41:00,
2013-04-30 20:47:00,33.1,27.3,30.32,SW,214,0.0,15.0,79,0.00,,,0.00,Wunderground v.1.15,2013-05-01 02:47:00,
2013-04-30 20:53:00,33.0,27.5,30.33,SW,214,0.0,15.0,80,0.00,,,0.00,Wunderground v.1.15,2013-05-01 02:53:00,
2013-04-30 20:59:00,33.2,27.7,30.33,SW,214,0.0,15.0,80,0.00,,,0.00,Wunderground v.1.15,2013-05-01 02:59:00,
2013-04-30 21:05:00,33.3,27.8,30.33,SW,214,0.0,15.0,80,0.00,,,0.00,Wunderground v.1.15,2013-05-01 03:05:00,
2013-04-30 21:10:00,33.4,27.9,30.33,SW,214,0.0,15.0,80,0.00,,,0.00,Wunderground v.1.15,2013-05-01 03:10:00,
2013-04-30 21:16:00,33.5,28.0,30.34,SW,214,0.0,15.0,80,0.00,,,0.00,Wunderground v.1.15,2013-05-01 03:16:00,
2013-04-30 21:22:00,33.0,27.5,30.34,WSW,252,0.0,15.0,80,0.00,,,0.00,Wunderground v.1.15,2013-05-01 03:22:00,
2013-04-30 21:28:00,32.9,27.7,30.34,WSW,252,0.0,15.0,81,0.00,,,0.00,Wunderground v.1.15,2013-05-01 03:28:00,
2013-04-30 21:34:00,32.8,27.9,30.35,WSW,252,0.0,15.0,82,0.00,,,0.00,Wunderground v.1.15,2013-05-01 03:34:00,
2013-04-30 21:39:00,32.6,27.7,30.35,WSW,252,0.0,15.0,82,0.00,,,0.00,Wunderground v.1.15,2013-05-01 03:39:00,
2013-04-30 21:45:00,32.5,27.6,30.35,WSW,252,0.0,15.0,82,0.00,,,0.00,Wunderground v.1.15,2013-05-01 03:45:00,
2013-04-30 21:51:00,32.4,27.5,30.36,WSW,252,0.0,15.0,82,0.00,,,0.00,Wunderground v.1.15,2013-05-01 03:51:00,
2013-04-30 21:57:00,32.5,27.6,30.36,WSW,252,0.0,15.0,82,0.00,,,0.00,Wunderground v.1.15,2013-05-01 03:57:00,
2013-04-30 22:01:00,32.5,27.6,30.36,WSW,252,0.0,15.0,82,0.00,,,0.00,Wunderground v.1.15,2013-05-01 04:01:00,
2013-04-30 22:02:00,32.5,27.6,30.36,WSW,252,0.0,15.0,82,0.00,,,0.00,Wunderground v.1.15,2013-05-01 04:02:00,
2013-04-30 22:08:00,32.7,28.1,30.36,WSW,252,0.0,15.0,83,0.00,,,0.00,Wunderground v.1.15,2013-05-01 04:08:00,
2013-04-30 22:10:00,32.7,28.1,30.36,WSW,252,0.0,15.0,83,0.00,,,0.00,Wunderground v.1.15,2013-05-01 04:10:00,
2013-04-30 22:13:00,32.6,28.3,30.37,WSW,252,0.0,15.0,84,0.00,,,0.00,Wunderground v.1.15,2013-05-01 04:13:00,
2013-04-30 22:15:00,32.6,28.0,30.37,WSW,252,0.0,15.0,83,0.00,,,0.00,Wunderground v.1.15,2013-05-01 04:15:00,
2013-04-30 22:21:00,32.6,28.3,30.37,WSW,252,0.0,15.0,84,0.00,,,0.00,Wunderground v.1.15,2013-05-01 04:21:00,
2013-04-30 22:27:00,32.5,27.9,30.37,WSW,252,0.0,15.0,83,0.00,,,0.00,Wunderground v.1.15,2013-05-01 04:27:00,
2013-04-30 22:33:00,32.3,27.7,30.37,WSW,252,0.0,15.0,83,0.00,,,0.00,Wunderground v.1.15,2013-05-01 04:33:00,
2013-04-30 22:38:00,32.2,27.6,30.38,WSW,252,0.0,15.0,83,0.00,,,0.00,Wunderground v.1.15,2013-05-01 04:38:00,
2013-04-30 22:44:00,32.1,27.8,30.38,WSW,252,0.0,15.0,84,0.00,,,0.00,Wunderground v.1.15,2013-05-01 04:44:00,
2013-04-30 22:49:00,32.0,28.0,30.38,WSW,252,0.0,15.0,85,0.00,,,0.00,Wunderground v.1.15,2013-05-01 04:49:00,
2013-04-30 22:55:00,31.7,27.7,30.39,WSW,252,0.0,15.0,85,0.00,,,0.00,Wunderground v.1.15,2013-05-01 04:55:00,
2013-04-30 23:01:00,31.1,27.1,30.39,WSW,252,0.0,15.0,85,0.00,,,0.00,Wunderground v.1.15,2013-05-01 05:01:00,
2013-04-30 23:06:00,31.1,27.4,30.39,WSW,252,0.0,15.0,86,0.00,,,0.00,Wunderground v.1.15,2013-05-01 05:06:00,
2013-04-30 23:12:00,31.3,27.6,30.39,WSW,252,0.0,15.0,86,0.00,,,0.00,Wunderground v.1.15,2013-05-01 05:12:00,
2013-04-30 23:18:00,31.6,28.2,30.40,WSW,252,0.0,15.0,87,0.00,,,0.00,Wunderground v.1.15,2013-05-01 05:18:00,
2013-04-30 23:23:00,31.8,28.1,30.40,WSW,252,0.0,15.0,86,0.00,,,0.00,Wunderground v.1.15,2013-05-01 05:23:00,
2013-04-30 23:29:00,31.8,27.8,30.40,WSW,252,0.0,15.0,85,0.00,,,0.00,Wunderground v.1.15,2013-05-01 05:29:00,
2013-04-30 23:35:00,31.9,28.2,30.40,WSW,252,0.0,15.0,86,0.00,,,0.00,Wunderground v.1.15,2013-05-01 05:35:00,
2013-04-30 23:41:00,31.7,28.3,30.40,WSW,252,0.0,15.0,87,0.00,,,0.00,Wunderground v.1.15,2013-05-01 05:41:00,
2013-04-30 23:46:00,31.7,28.8,30.40,NNW,327,0.0,15.0,89,0.00,,,0.00,Wunderground v.1.15,2013-05-01 05:46:00,
2013-04-30 23:52:00,31.9,29.6,30.40,NNW,327,0.0,15.0,91,0.00,,,0.00,Wunderground v.1.15,2013-05-01 05:52:00,
2013-04-30 23:58:00,31.9,29.8,30.40,NNW,327,0.0,15.0,92,0.00,,,0.00,Wunderground v.1.15,2013-05-01 05:58:00,